Time;durP1;ratioP1;P1;durP2;ratioP2;P2;SDS_P1;SDS_P2;PMS_P1;PMS_P2;Temp;Humidity;BMP_temperature;BMP_pressure;BME280_temperature;BME280_humidity;BME280_pressure;Samples;Min_cycle;Max_cycle;Signal;HPM_P1;HPM_P2
2022/08/15 00:02:21;;;;;;;;;;;22.40;99.90;;;;;;5047585;28;19925;-77
2022/08/15 00:04:47;;;;;;;;;;;22.40;99.90;;;;;;5048526;28;20318;-77
2022/08/15 00:07:13;;;;;;;;;;;22.40;99.90;;;;;;5048264;28;20295;-77
2022/08/15 00:09:38;;;;;;;;;;;22.40;99.90;;;;;;5048647;28;19975;-77
2022/08/15 00:12:04;;;;;;;;;;;22.40;99.90;;;;;;5048836;28;19925;-78
2022/08/15 00:14:31;;;;;;;;;;;22.30;99.90;;;;;;5048096;28;19943;-78
2022/08/15 00:16:58;;;;;;;;;;;22.30;99.90;;;;;;5046414;28;19933;-77
2022/08/15 00:19:25;;;;;;;;;;;22.20;99.90;;;;;;5047435;28;19925;-77
2022/08/15 00:21:52;;;;;;;;;;;22.20;99.90;;;;;;5046437;28;19925;-77
2022/08/15 00:24:19;;;;;;;;;;;22.20;99.90;;;;;;5048229;28;19929;-78
2022/08/15 00:26:48;;;;;;;;;;;22.20;99.90;;;;;;5047735;28;20059;-77
2022/08/15 00:29:17;;;;;;;;;;;22.20;99.90;;;;;;5048347;28;19948;-77
2022/08/15 00:31:43;;;;;;;;;;;22.10;99.90;;;;;;5047083;28;19928;-77
2022/08/15 00:34:10;;;;;;;;;;;22.10;99.90;;;;;;5047819;28;19925;-77
2022/08/15 00:36:36;;;;;;;;;;;22.10;99.90;;;;;;5046883;28;19925;-77
2022/08/15 00:39:03;;;;;;;;;;;22.10;99.90;;;;;;5048266;28;20008;-78
2022/08/15 00:41:41;;;;;;;;;;;22.10;99.90;;;;;;5048144;28;19936;-75
2022/08/15 00:44:17;;;;;;;;;;;22.00;99.90;;;;;;5047737;28;19925;-78
2022/08/15 00:46:44;;;;;;;;;;;22.00;99.90;;;;;;5045261;28;19924;-78
2022/08/15 00:49:10;;;;;;;;;;;22.00;99.90;;;;;;5047875;28;19925;-78
2022/08/15 00:51:38;;;;;;;;;;;22.00;99.90;;;;;;5047600;28;19931;-77
2022/08/15 00:54:06;;;;;;;;;;;22.00;99.90;;;;;;5047459;28;20419;-78
2022/08/15 00:56:35;;;;;;;;;;;22.00;99.90;;;;;;5047363;28;19946;-77
2022/08/15 00:59:01;;;;;;;;;;;21.90;99.90;;;;;;5031621;28;19939;-77
2022/08/15 01:01:27;;;;;;;;;;;21.90;99.90;;;;;;5048018;28;19925;-77
2022/08/15 01:03:52;;;;;;;;;;;21.90;99.90;;;;;;5046096;28;20300;-77
2022/08/15 01:06:19;;;;;;;;;;;21.90;99.90;;;;;;5047175;28;20188;-77
2022/08/15 01:08:46;;;;;;;;;;;21.90;99.90;;;;;;5047154;28;20378;-77
2022/08/15 01:11:15;;;;;;;;;;;21.90;99.90;;;;;;5045921;28;19928;-77
2022/08/15 01:13:41;;;;;;;;;;;21.90;99.90;;;;;;5047117;28;20015;-77
2022/08/15 01:16:07;;;;;;;;;;;21.80;99.90;;;;;;5047545;28;19931;-77
2022/08/15 01:18:32;;;;;;;;;;;21.90;99.90;;;;;;5046281;28;19976;-78
2022/08/15 01:21:00;;;;;;;;;;;21.80;99.90;;;;;;5047835;28;19978;-77
2022/08/15 01:23:36;;;;;;;;;;;21.80;99.90;;;;;;5047316;28;20295;-77
2022/08/15 01:26:03;;;;;;;;;;;21.80;99.90;;;;;;5041431;28;19941;-77
2022/08/15 01:28:37;;;;;;;;;;;21.80;99.90;;;;;;5046600;28;19925;-77
2022/08/15 01:31:07;;;;;;;;;;;21.90;99.90;;;;;;5047219;28;19925;-78
2022/08/15 01:33:39;;;;;;;;;;;21.80;99.90;;;;;;5044828;28;20426;-78
2022/08/15 01:36:04;;;;;;;;;;;21.80;99.90;;;;;;5028942;28;19976;-77
2022/08/15 01:38:35;;;;;;;;;;;21.80;99.90;;;;;;5046721;28;19975;-78
2022/08/15 01:41:04;;;;;;;;;;;21.80;99.90;;;;;;5047310;28;19925;-77
2022/08/15 01:43:33;;;;;;;;;;;21.70;99.90;;;;;;5046775;28;19925;-77
2022/08/15 01:46:02;;;;;;;;;;;21.70;99.90;;;;;;5047029;28;19991;-77
2022/08/15 01:48:32;;;;;;;;;;;21.70;99.90;;;;;;5046651;28;19925;-77
2022/08/15 01:51:00;;;;;;;;;;;21.70;99.90;;;;;;5029339;28;20409;-77
2022/08/15 01:53:38;;;;;;;;;;;21.60;99.90;;;;;;5046996;28;20023;-77
2022/08/15 01:56:06;;;;;;;;;;;21.60;99.90;;;;;;5045300;28;19925;-77
2022/08/15 01:58:35;;;;;;;;;;;21.60;99.90;;;;;;5046470;28;19978;-78
2022/08/15 02:01:03;;;;;;;;;;;21.60;99.90;;;;;;5046628;28;19991;-78
2022/08/15 02:03:35;;;;;;;;;;;21.50;99.90;;;;;;5045963;28;19970;-77
2022/08/15 02:06:02;;;;;;;;;;;21.50;99.90;;;;;;5046665;28;20410;-77
2022/08/15 02:08:28;;;;;;;;;;;21.50;99.90;;;;;;5046787;28;19932;-77
2022/08/15 02:10:53;;;;;;;;;;;21.40;99.90;;;;;;5045882;28;19928;-77
2022/08/15 02:13:19;;;;;;;;;;;21.40;99.90;;;;;;5046726;28;20401;-77
2022/08/15 02:15:45;;;;;;;;;;;21.40;99.90;;;;;;5045211;28;20018;-77
2022/08/15 02:18:11;;;;;;;;;;;21.40;99.90;;;;;;5045419;28;19979;-77
2022/08/15 02:20:37;;;;;;;;;;;21.30;99.90;;;;;;5046708;28;19925;-77
2022/08/15 02:23:02;;;;;;;;;;;21.30;99.90;;;;;;5046538;28;19932;-78
2022/08/15 02:25:28;;;;;;;;;;;21.40;99.90;;;;;;5046723;28;20363;-77
2022/08/15 02:27:54;;;;;;;;;;;21.40;99.90;;;;;;5046775;28;19933;-77
2022/08/15 02:30:20;;;;;;;;;;;21.40;99.90;;;;;;5045320;28;19925;-77
2022/08/15 02:32:47;;;;;;;;;;;21.30;99.90;;;;;;5045030;28;19948;-77
2022/08/15 02:35:16;;;;;;;;;;;21.40;99.90;;;;;;5046635;28;19952;-77
2022/08/15 02:37:42;;;;;;;;;;;21.30;99.90;;;;;;5046135;28;19932;-77
2022/08/15 02:40:09;;;;;;;;;;;21.30;99.90;;;;;;5045561;28;19929;-77
2022/08/15 02:42:36;;;;;;;;;;;21.40;99.90;;;;;;5049529;28;19925;-77
2022/08/15 02:45:03;;;;;;;;;;;21.30;99.90;;;;;;5050304;28;19931;-77
2022/08/15 02:47:29;;;;;;;;;;;21.30;99.90;;;;;;5047626;28;19940;-76
2022/08/15 02:49:54;;;;;;;;;;;21.30;99.90;;;;;;5050703;28;20035;-77
2022/08/15 02:52:20;;;;;;;;;;;21.30;99.90;;;;;;5050292;28;20367;-77
2022/08/15 02:54:45;;;;;;;;;;;21.30;99.90;;;;;;5049925;28;19925;-77
2022/08/15 02:57:11;;;;;;;;;;;21.30;99.90;;;;;;5049063;28;19938;-77
2022/08/15 02:59:36;;;;;;;;;;;21.30;99.90;;;;;;5049769;28;19931;-77
2022/08/15 03:02:02;;;;;;;;;;;21.30;99.90;;;;;;5047590;28;19924;-77
2022/08/15 03:04:30;;;;;;;;;;;21.30;99.90;;;;;;5048751;28;19933;-77
2022/08/15 03:06:56;;;;;;;;;;;21.30;99.90;;;;;;5048956;28;19976;-77
2022/08/15 03:09:22;;;;;;;;;;;21.30;99.90;;;;;;5049529;28;20007;-77
2022/08/15 03:11:47;;;;;;;;;;;21.30;99.90;;;;;;5049664;28;20387;-77
2022/08/15 03:14:16;;;;;;;;;;;21.30;99.90;;;;;;5049580;28;20295;-77
2022/08/15 03:16:43;;;;;;;;;;;21.20;99.90;;;;;;5048422;28;20484;-77
2022/08/15 03:19:16;;;;;;;;;;;21.20;99.90;;;;;;5048272;28;19932;-77
2022/08/15 03:21:42;;;;;;;;;;;21.20;99.90;;;;;;5049057;28;19925;-77
2022/08/15 03:24:08;;;;;;;;;;;21.20;99.90;;;;;;5049622;28;19924;-77
2022/08/15 03:26:34;;;;;;;;;;;21.10;99.90;;;;;;5049196;28;19925;-77
2022/08/15 03:28:59;;;;;;;;;;;21.10;99.90;;;;;;5049133;28;19928;-77
2022/08/15 03:31:25;;;;;;;;;;;21.10;99.90;;;;;;5031417;28;20047;-77
2022/08/15 03:33:51;;;;;;;;;;;21.10;99.90;;;;;;5048928;28;19980;-77
2022/08/15 03:36:18;;;;;;;;;;;21.00;99.90;;;;;;5049291;28;19931;-78
2022/08/15 03:38:45;;;;;;;;;;;21.00;99.90;;;;;;5048771;28;20012;-77
2022/08/15 03:41:10;;;;;;;;;;;21.00;99.90;;;;;;5049357;28;20379;-77
2022/08/15 03:43:37;;;;;;;;;;;20.90;99.90;;;;;;5048706;28;19971;-77
2022/08/15 03:46:05;;;;;;;;;;;20.90;99.90;;;;;;5049168;28;19932;-77
2022/08/15 03:48:32;;;;;;;;;;;20.80;99.90;;;;;;5048881;28;19968;-77
2022/08/15 03:50:59;;;;;;;;;;;20.80;99.90;;;;;;5049395;28;19925;-77
2022/08/15 03:53:27;;;;;;;;;;;20.70;99.90;;;;;;5048744;28;19924;-77
2022/08/15 03:55:52;;;;;;;;;;;20.70;99.90;;;;;;5048467;28;19968;-77
2022/08/15 03:58:18;;;;;;;;;;;20.70;99.90;;;;;;5048624;28;20578;-78
2022/08/15 04:00:45;;;;;;;;;;;20.70;99.90;;;;;;5048634;28;19932;-77
2022/08/15 04:03:12;;;;;;;;;;;20.70;99.90;;;;;;5046388;28;19948;-77
2022/08/15 04:05:38;;;;;;;;;;;20.60;99.90;;;;;;5048475;28;19925;-77
2022/08/15 04:08:05;;;;;;;;;;;20.60;99.90;;;;;;5030676;28;19925;-77
2022/08/15 04:10:30;;;;;;;;;;;20.60;99.90;;;;;;5048204;28;19925;-77
2022/08/15 04:12:57;;;;;;;;;;;20.60;99.90;;;;;;5048708;28;19925;-77
2022/08/15 04:15:22;;;;;;;;;;;20.60;99.90;;;;;;5047250;28;19932;-77
2022/08/15 04:17:48;;;;;;;;;;;20.60;99.90;;;;;;5047402;28;20335;-77
2022/08/15 04:20:14;;;;;;;;;;;20.60;99.90;;;;;;5048569;28;19924;-77
2022/08/15 04:22:42;;;;;;;;;;;20.60;99.90;;;;;;5047668;28;19925;-77
2022/08/15 04:25:16;;;;;;;;;;;20.60;99.90;;;;;;5048320;28;19925;-77
2022/08/15 04:27:41;;;;;;;;;;;20.60;99.90;;;;;;5046683;28;19932;-77
2022/08/15 04:30:07;;;;;;;;;;;20.60;99.90;;;;;;5048149;28;19924;-77
2022/08/15 04:32:33;;;;;;;;;;;20.60;99.90;;;;;;5047097;28;19924;-78
2022/08/15 04:34:59;;;;;;;;;;;20.50;99.90;;;;;;5047772;28;20398;-77
2022/08/15 04:37:28;;;;;;;;;;;20.50;99.90;;;;;;5046959;28;20039;-78
2022/08/15 04:39:54;;;;;;;;;;;20.50;99.90;;;;;;5042988;28;19939;-78
2022/08/15 04:42:21;;;;;;;;;;;20.50;99.90;;;;;;5040293;28;21675;-80
2022/08/15 04:44:48;;;;;;;;;;;20.50;99.90;;;;;;5045520;28;19928;-79
2022/08/15 04:47:14;;;;;;;;;;;20.50;99.90;;;;;;5044717;28;19925;-80
2022/08/15 04:49:40;;;;;;;;;;;20.50;99.90;;;;;;5045140;28;19921;-79
2022/08/15 04:52:10;;;;;;;;;;;20.60;99.90;;;;;;5047010;28;19939;-78
2022/08/15 04:54:36;;;;;;;;;;;20.60;99.90;;;;;;5046835;28;19927;-78
2022/08/15 04:57:02;;;;;;;;;;;20.60;99.90;;;;;;5047725;28;19940;-79
2022/08/15 04:59:27;;;;;;;;;;;20.60;99.90;;;;;;5047869;28;19978;-78
2022/08/15 05:01:53;;;;;;;;;;;20.60;99.90;;;;;;5045124;28;20274;-78
2022/08/15 05:04:19;;;;;;;;;;;20.70;99.90;;;;;;5046456;28;19974;-78
2022/08/15 05:06:44;;;;;;;;;;;20.70;99.90;;;;;;5046742;28;20028;-78
2022/08/15 05:09:10;;;;;;;;;;;20.70;99.90;;;;;;5047199;28;20480;-78
2022/08/15 05:11:36;;;;;;;;;;;20.70;99.90;;;;;;5046925;28;19929;-81
2022/08/15 05:14:02;;;;;;;;;;;20.70;99.90;;;;;;5047260;28;19930;-79
2022/08/15 05:16:27;;;;;;;;;;;20.70;99.90;;;;;;5046918;28;20299;-78
2022/08/15 05:18:53;;;;;;;;;;;20.70;99.90;;;;;;5046695;28;20411;-78
2022/08/15 05:21:18;;;;;;;;;;;20.70;99.90;;;;;;5047117;28;19929;-78
2022/08/15 05:23:44;;;;;;;;;;;20.70;99.90;;;;;;5046685;28;19990;-78
2022/08/15 05:26:10;;;;;;;;;;;20.70;99.90;;;;;;5047308;28;19987;-78
2022/08/15 05:28:36;;;;;;;;;;;20.80;99.90;;;;;;5046915;28;20354;-78
2022/08/15 05:31:03;;;;;;;;;;;20.80;99.90;;;;;;5045886;28;20016;-81
2022/08/15 05:33:30;;;;;;;;;;;20.80;99.90;;;;;;5046485;28;19924;-77
2022/08/15 05:35:57;;;;;;;;;;;20.90;99.90;;;;;;5046681;28;19986;-77
2022/08/15 05:38:27;;;;;;;;;;;20.90;99.90;;;;;;5046489;28;19924;-77
2022/08/15 05:41:00;;;;;;;;;;;20.90;99.90;;;;;;5045868;28;19925;-76
2022/08/15 05:43:46;;;;;;;;;;;20.90;99.90;;;;;;5046749;28;19931;-77
2022/08/15 05:46:21;;;;;;;;;;;21.00;99.90;;;;;;5045813;28;19924;-77
2022/08/15 05:48:49;;;;;;;;;;;21.00;99.90;;;;;;5046142;28;19925;-77
2022/08/15 05:51:21;;;;;;;;;;;21.00;99.90;;;;;;5046849;28;19937;-76
2022/08/15 05:54:00;;;;;;;;;;;21.00;99.90;;;;;;5045966;28;19929;-77
2022/08/15 05:56:32;;;;;;;;;;;21.00;99.90;;;;;;5046984;28;20452;-77
2022/08/15 05:59:04;;;;;;;;;;;21.10;99.90;;;;;;5046762;28;20288;-76
2022/08/15 06:01:34;;;;;;;;;;;21.00;99.90;;;;;;5045844;28;20038;-77
2022/08/15 06:04:09;;;;;;;;;;;21.10;99.90;;;;;;5046418;28;20011;-76
2022/08/15 06:06:38;;;;;;;;;;;21.10;99.90;;;;;;5045876;28;20383;-77
2022/08/15 06:09:22;;;;;;;;;;;21.10;99.90;;;;;;5046148;28;19959;-77
2022/08/15 06:11:49;;;;;;;;;;;21.10;99.90;;;;;;5045887;28;19928;-77
2022/08/15 06:14:22;;;;;;;;;;;21.10;99.90;;;;;;5046383;28;19947;-77
2022/08/15 06:16:52;;;;;;;;;;;21.20;99.90;;;;;;5049399;28;19929;-77
2022/08/15 06:19:23;;;;;;;;;;;21.20;99.90;;;;;;5050433;28;20007;-77
2022/08/15 06:21:53;;;;;;;;;;;21.30;99.90;;;;;;5049939;28;20407;-77
2022/08/15 06:24:38;;;;;;;;;;;21.30;99.90;;;;;;5049016;28;20346;-76
2022/08/15 06:27:19;;;;;;;;;;;21.30;99.90;;;;;;5050432;28;20030;-77
2022/08/15 06:29:47;;;;;;;;;;;21.30;99.90;;;;;;5048659;28;19925;-77
2022/08/15 06:32:16;;;;;;;;;;;21.40;99.90;;;;;;5049420;28;20011;-76
2022/08/15 06:34:42;;;;;;;;;;;21.40;99.90;;;;;;5049755;28;19929;-76
2022/08/15 06:37:10;;;;;;;;;;;21.50;99.90;;;;;;5050109;28;20401;-77
2022/08/15 06:39:45;;;;;;;;;;;21.50;99.90;;;;;;5049633;28;19925;-76
2022/08/15 06:42:18;;;;;;;;;;;21.50;99.90;;;;;;5049729;28;19924;-76
2022/08/15 06:44:47;;;;;;;;;;;21.60;99.90;;;;;;5049223;28;20012;-76
2022/08/15 06:47:13;;;;;;;;;;;21.60;99.90;;;;;;5049353;28;19929;-77
2022/08/15 06:49:40;;;;;;;;;;;21.70;99.90;;;;;;5048037;28;19940;-77
2022/08/15 06:52:07;;;;;;;;;;;21.70;99.90;;;;;;5050044;28;20430;-77
2022/08/15 06:54:35;;;;;;;;;;;21.70;99.90;;;;;;5049517;28;19925;-77
2022/08/15 06:57:08;;;;;;;;;;;21.70;99.90;;;;;;5049395;28;19943;-77
2022/08/15 06:59:53;;;;;;;;;;;21.80;99.90;;;;;;5049171;28;19940;-77
2022/08/15 07:02:21;;;;;;;;;;;21.80;99.90;;;;;;5048279;28;20649;-77
2022/08/15 07:04:53;;;;;;;;;;;21.90;99.90;;;;;;5031113;28;19925;-76
2022/08/15 07:07:24;;;;;;;;;;;21.90;99.90;;;;;;5049229;28;19991;-77
2022/08/15 07:09:52;;;;;;;;;;;22.00;99.90;;;;;;5049195;28;19924;-77
2022/08/15 07:12:37;;;;;;;;;;;22.00;99.90;;;;;;5047765;28;19931;-77
2022/08/15 07:15:12;;;;;;;;;;;22.10;99.90;;;;;;5049429;28;20302;-77
2022/08/15 07:17:42;;;;;;;;;;;22.10;99.90;;;;;;5048560;28;19924;-77
2022/08/15 07:20:07;;;;;;;;;;;22.20;99.90;;;;;;5049069;28;19925;-76
2022/08/15 07:22:34;;;;;;;;;;;22.20;99.90;;;;;;5048968;28;19970;-77
2022/08/15 07:24:59;;;;;;;;;;;22.20;99.90;;;;;;5049004;28;20006;-76
2022/08/15 07:27:27;;;;;;;;;;;22.30;99.90;;;;;;5048532;28;20398;-77
2022/08/15 07:30:00;;;;;;;;;;;22.30;99.90;;;;;;5047918;28;19940;-77
2022/08/15 07:32:41;;;;;;;;;;;22.40;99.90;;;;;;5048323;28;19924;-77
2022/08/15 07:35:11;;;;;;;;;;;22.50;99.90;;;;;;5046700;28;20405;-77
2022/08/15 07:37:41;;;;;;;;;;;22.50;99.90;;;;;;5048741;28;20015;-77
2022/08/15 07:40:14;;;;;;;;;;;22.50;99.90;;;;;;5047541;28;19961;-77
2022/08/15 07:42:41;;;;;;;;;;;22.60;99.90;;;;;;5048328;28;19969;-77
2022/08/15 07:45:15;;;;;;;;;;;22.70;99.90;;;;;;5048440;28;20333;-78
2022/08/15 07:47:54;;;;;;;;;;;22.70;99.90;;;;;;5047635;28;19932;-79
2022/08/15 07:50:30;;;;;;;;;;;22.70;99.90;;;;;;5029535;28;19932;-78
2022/08/15 07:52:56;;;;;;;;;;;22.80;99.90;;;;;;5036982;28;19924;-77
2022/08/15 07:55:22;;;;;;;;;;;22.90;99.90;;;;;;5062129;28;19928;-76
2022/08/15 07:58:10;;;;;;;;;;;22.90;99.90;;;;;;5068571;28;19943;-77
2022/08/15 08:00:36;;;;;;;;;;;22.90;99.90;;;;;;5025685;28;19925;-78
2022/08/15 08:03:13;;;;;;;;;;;23.00;99.90;;;;;;5028801;28;20414;-78
2022/08/15 08:05:47;;;;;;;;;;;23.00;99.90;;;;;;5028604;28;19925;-77
2022/08/15 08:08:12;;;;;;;;;;;23.00;99.90;;;;;;5028415;28;19932;-78
2022/08/15 08:10:42;;;;;;;;;;;23.10;99.90;;;;;;5038478;28;19925;-78
2022/08/15 08:13:11;;;;;;;;;;;23.20;99.90;;;;;;5068889;28;19928;-78
2022/08/15 08:15:50;;;;;;;;;;;23.20;99.90;;;;;;5067595;28;19924;-78
2022/08/15 08:18:45;;;;;;;;;;;23.20;99.90;;;;;;5068552;28;19924;-78
2022/08/15 08:21:13;;;;;;;;;;;23.20;99.90;;;;;;5055020;28;19924;-78
2022/08/15 08:23:49;;;;;;;;;;;23.30;99.90;;;;;;5068165;28;19932;-77
2022/08/15 08:26:35;;;;;;;;;;;23.30;99.90;;;;;;5068382;28;19925;-78
2022/08/15 08:29:00;;;;;;;;;;;23.40;99.90;;;;;;5068308;28;20493;-79
2022/08/15 08:31:45;;;;;;;;;;;23.40;99.90;;;;;;5066166;28;20007;-79
2022/08/15 08:34:13;;;;;;;;;;;23.50;99.90;;;;;;5062784;28;19925;-79
2022/08/15 08:36:45;;;;;;;;;;;23.50;99.90;;;;;;5041141;28;20390;-84
2022/08/15 08:39:19;;;;;;;;;;;23.50;99.90;;;;;;5046790;28;20430;-81
2022/08/15 08:41:50;;;;;;;;;;;23.60;99.90;;;;;;5057304;28;19925;-87
2022/08/15 08:44:19;;;;;;;;;;;23.60;99.90;;;;;;5048153;28;19975;-91
2022/08/15 08:46:54;;;;;;;;;;;23.70;99.90;;;;;;5044595;28;19924;-85
2022/08/15 08:49:33;;;;;;;;;;;23.80;99.90;;;;;;5047502;28;19987;-86
2022/08/15 08:52:08;;;;;;;;;;;23.80;99.90;;;;;;5029845;28;20433;-87
2022/08/15 08:54:49;;;;;;;;;;;23.90;99.90;;;;;;5047637;28;19925;-81
2022/08/15 08:57:16;;;;;;;;;;;24.10;99.90;;;;;;5045157;28;19925;-85
2022/08/15 08:59:52;;;;;;;;;;;24.10;99.90;;;;;;5045453;28;20015;-87
2022/08/15 09:02:22;;;;;;;;;;;24.20;99.90;;;;;;5046512;28;19925;-84
2022/08/15 09:04:50;;;;;;;;;;;24.20;99.90;;;;;;5045591;28;20410;-84
2022/08/15 09:07:24;;;;;;;;;;;24.30;99.90;;;;;;5049545;28;19924;-88
2022/08/15 09:09:51;;;;;;;;;;;24.30;99.90;;;;;;5048954;28;19928;-91
2022/08/15 09:15:06;;;;;;;;;;;24.40;99.90;;;;;;5047062;28;19932;-82
2022/08/15 09:17:33;;;;;;;;;;;24.40;99.90;;;;;;5046058;28;19929;-83
2022/08/15 09:19:59;;;;;;;;;;;24.40;99.90;;;;;;5062141;28;19957;-87
2022/08/15 09:22:24;;;;;;;;;;;24.50;99.90;;;;;;5028618;28;20345;-79
2022/08/15 09:24:50;;;;;;;;;;;24.60;99.90;;;;;;5027526;28;19925;-79
2022/08/15 09:27:18;;;;;;;;;;;24.60;99.90;;;;;;5027591;28;20304;-79
2022/08/15 09:29:46;;;;;;;;;;;24.60;99.90;;;;;;5027218;28;19932;-79
2022/08/15 09:32:26;;;;;;;;;;;24.60;99.90;;;;;;5025966;28;20024;-78
2022/08/15 09:35:05;;;;;;;;;;;24.60;99.90;;;;;;5034656;28;19995;-79
2022/08/15 09:37:40;;;;;;;;;;;24.60;99.90;;;;;;5025462;28;19972;-79
2022/08/15 09:40:10;;;;;;;;;;;24.70;99.90;;;;;;5025580;28;20012;-79
2022/08/15 09:42:55;;;;;;;;;;;24.80;99.90;;;;;;5027250;28;19984;-79
2022/08/15 09:45:23;;;;;;;;;;;24.80;99.90;;;;;;5046099;28;20379;-79
2022/08/15 09:47:59;;;;;;;;;;;24.80;99.90;;;;;;5046728;28;20508;-79
2022/08/15 09:50:40;;;;;;;;;;;24.90;99.90;;;;;;5044782;28;19975;-79
2022/08/15 09:53:05;;;;;;;;;;;24.80;99.90;;;;;;5044109;28;19939;-79
2022/08/15 09:55:44;;;;;;;;;;;24.90;99.90;;;;;;5043706;28;20011;-80
2022/08/15 09:58:26;;;;;;;;;;;24.90;99.90;;;;;;5045566;28;19924;-80
2022/08/15 10:01:03;;;;;;;;;;;24.90;99.90;;;;;;5041826;28;20375;-81
2022/08/15 10:03:44;;;;;;;;;;;24.90;99.90;;;;;;5027013;28;19925;-80
2022/08/15 10:06:30;;;;;;;;;;;24.90;99.90;;;;;;5045667;28;20012;-80
2022/08/15 10:08:55;;;;;;;;;;;24.90;99.90;;;;;;5043890;28;19970;-80
2022/08/15 10:11:28;;;;;;;;;;;24.90;99.90;;;;;;5046857;28;20019;-79
2022/08/15 10:14:05;;;;;;;;;;;24.90;99.90;;;;;;5045816;28;19924;-80
2022/08/15 10:16:40;;;;;;;;;;;24.90;99.90;;;;;;5045339;28;19986;-80
2022/08/15 10:19:11;;;;;;;;;;;25.00;99.90;;;;;;5041929;28;19978;-79
2022/08/15 10:21:41;;;;;;;;;;;25.10;99.90;;;;;;5039912;28;19924;-79
2022/08/15 10:24:38;;;;;;;;;;;25.10;99.90;;;;;;5043601;28;19929;-82
2022/08/15 10:27:03;;;;;;;;;;;25.10;99.90;;;;;;5038395;28;19939;-80
2022/08/15 10:29:32;;;;;;;;;;;25.10;99.90;;;;;;5042139;28;20323;-83
2022/08/15 10:31:58;;;;;;;;;;;25.10;99.90;;;;;;5043474;28;19921;-94
2022/08/15 10:34:37;;;;;;;;;;;25.10;99.90;;;;;;5045142;28;20337;-89
2022/08/15 10:37:09;;;;;;;;;;;25.20;99.90;;;;;;5044084;28;20315;-86
2022/08/15 10:39:44;;;;;;;;;;;25.20;99.90;;;;;;5042171;28;20393;-82
2022/08/15 10:42:23;;;;;;;;;;;25.20;99.90;;;;;;5041885;28;19925;-85
2022/08/15 10:45:01;;;;;;;;;;;25.30;99.90;;;;;;5027820;28;19975;-84
2022/08/15 10:47:43;;;;;;;;;;;25.40;99.90;;;;;;5025915;28;19931;-84
2022/08/15 10:50:09;;;;;;;;;;;25.40;99.90;;;;;;5045547;28;20290;-85
2022/08/15 10:52:40;;;;;;;;;;;25.40;99.90;;;;;;5044991;28;20016;-84
2022/08/15 10:55:15;;;;;;;;;;;25.40;99.90;;;;;;5046559;28;19986;-85
2022/08/15 10:57:47;;;;;;;;;;;25.40;99.90;;;;;;5044784;28;20445;-85
2022/08/15 11:00:37;;;;;;;;;;;25.40;99.90;;;;;;5044801;28;20441;-85
2022/08/15 11:03:04;;;;;;;;;;;25.40;99.90;;;;;;5022875;28;19925;-81
2022/08/15 11:05:30;;;;;;;;;;;25.40;99.90;;;;;;5048806;28;19951;-85
2022/08/15 11:07:55;;;;;;;;;;;25.30;99.90;;;;;;5049701;28;19929;-86
2022/08/15 11:10:23;;;;;;;;;;;25.30;99.90;;;;;;5043995;28;19936;-86
2022/08/15 11:12:54;;;;;;;;;;;25.40;99.90;;;;;;5044805;28;20846;-86
2022/08/15 11:15:23;;;;;;;;;;;25.40;99.90;;;;;;5045017;28;19924;-85
2022/08/15 11:18:03;;;;;;;;;;;25.40;99.90;;;;;;5043681;28;19932;-88
2022/08/15 11:20:36;;;;;;;;;;;25.40;99.90;;;;;;5029617;28;19928;-81
2022/08/15 11:23:03;;;;;;;;;;;25.40;99.90;;;;;;5048576;28;20410;-85
2022/08/15 11:25:30;;;;;;;;;;;25.50;99.90;;;;;;5048654;28;19960;-80
2022/08/15 11:28:00;;;;;;;;;;;25.50;99.90;;;;;;5057052;28;20011;-84
2022/08/15 11:30:25;;;;;;;;;;;25.60;99.90;;;;;;5056889;28;20568;-87
2022/08/15 11:32:52;;;;;;;;;;;25.60;99.90;;;;;;5062107;28;19929;-87
2022/08/15 11:35:21;;;;;;;;;;;25.50;99.90;;;;;;5053649;28;20295;-83
2022/08/15 11:37:47;;;;;;;;;;;25.60;99.90;;;;;;5046163;28;19924;-88
2022/08/15 11:40:21;;;;;;;;;;;25.60;99.90;;;;;;5047701;28;20019;-84
2022/08/15 11:42:48;;;;;;;;;;;25.50;99.90;;;;;;5045578;28;20016;-85
2022/08/15 11:45:24;;;;;;;;;;;25.50;99.90;;;;;;5047041;28;20387;-83
2022/08/15 11:47:52;;;;;;;;;;;25.50;99.90;;;;;;5045316;28;19976;-83
2022/08/15 11:50:26;;;;;;;;;;;25.50;99.90;;;;;;5048439;28;19974;-81
2022/08/15 11:52:54;;;;;;;;;;;25.40;99.90;;;;;;5048143;28;20024;-85
2022/08/15 11:55:26;;;;;;;;;;;25.50;99.90;;;;;;5047787;28;19924;-84
2022/08/15 11:57:53;;;;;;;;;;;25.50;99.90;;;;;;5044954;28;19932;-87
2022/08/15 12:00:45;;;;;;;;;;;25.50;99.90;;;;;;5047226;28;19920;-88
2022/08/15 12:03:22;;;;;;;;;;;25.50;99.90;;;;;;5016862;28;20270;-84
2022/08/15 12:05:50;;;;;;;;;;;25.50;99.90;;;;;;5037568;28;20466;-79
2022/08/15 12:08:25;;;;;;;;;;;25.50;99.90;;;;;;5042856;28;19936;-79
2022/08/15 12:11:00;;;;;;;;;;;25.50;99.90;;;;;;5042352;28;19963;-79
2022/08/15 12:13:25;;;;;;;;;;;25.50;99.90;;;;;;5047257;28;19925;-79
2022/08/15 12:15:51;;;;;;;;;;;25.60;99.90;;;;;;5045476;28;20433;-79
2022/08/15 12:18:20;;;;;;;;;;;25.50;99.90;;;;;;5047632;28;20027;-79
2022/08/15 12:20:54;;;;;;;;;;;25.60;99.90;;;;;;5048185;28;19925;-79
2022/08/15 12:23:28;;;;;;;;;;;25.60;99.90;;;;;;5048187;28;20329;-79
2022/08/15 12:25:55;;;;;;;;;;;25.60;99.90;;;;;;5047174;28;20006;-79
2022/08/15 12:28:21;;;;;;;;;;;25.60;99.90;;;;;;5047988;28;19925;-80
2022/08/15 12:30:47;;;;;;;;;;;25.70;99.90;;;;;;5046662;28;19925;-78
2022/08/15 12:33:13;;;;;;;;;;;25.70;99.90;;;;;;5048160;28;20411;-77
2022/08/15 12:35:38;;;;;;;;;;;25.70;99.90;;;;;;5046927;28;19964;-79
2022/08/15 12:38:04;;;;;;;;;;;25.60;99.90;;;;;;5047440;28;19963;-79
2022/08/15 12:40:29;;;;;;;;;;;25.60;99.90;;;;;;5040304;28;19966;-78
2022/08/15 12:42:55;;;;;;;;;;;25.60;99.90;;;;;;5032699;28;20290;-78
2022/08/15 12:45:21;;;;;;;;;;;25.60;99.90;;;;;;5026654;28;19926;-77
2022/08/15 12:47:47;;;;;;;;;;;25.60;99.90;;;;;;5027707;28;19933;-78
2022/08/15 12:50:13;;;;;;;;;;;25.60;99.90;;;;;;5027086;28;19929;-80
2022/08/15 12:52:38;;;;;;;;;;;25.60;99.90;;;;;;5025638;28;20447;-79
2022/08/15 12:55:05;;;;;;;;;;;25.60;99.90;;;;;;5027224;28;19918;-77
2022/08/15 12:57:31;;;;;;;;;;;25.50;99.90;;;;;;5026107;28;19932;-76
2022/08/15 12:59:56;;;;;;;;;;;25.50;99.90;;;;;;5041830;28;19924;-76
2022/08/15 13:02:24;;;;;;;;;;;25.50;99.90;;;;;;5027533;28;19932;-76
2022/08/15 13:04:55;;;;;;;;;;;25.50;99.90;;;;;;5025930;28;19932;-76
2022/08/15 13:07:21;;;;;;;;;;;25.50;99.90;;;;;;5026993;28;19933;-76
2022/08/15 13:09:48;;;;;;;;;;;25.50;99.90;;;;;;5042453;28;20012;-76
2022/08/15 13:12:14;;;;;;;;;;;25.50;99.90;;;;;;5027264;28;19987;-76
2022/08/15 13:14:39;;;;;;;;;;;25.50;99.90;;;;;;5026158;28;20445;-76
2022/08/15 13:17:05;;;;;;;;;;;25.60;99.90;;;;;;5027392;28;19980;-77
2022/08/15 13:23:34;;;;;;;;;;;25.70;99.90;;;;;;5026645;28;20335;-76
2022/08/15 13:25:06;;;;;;;;;;;25.80;99.90;;;;;;5026125;28;20426;-77
2022/08/15 13:27:33;;;;;;;;;;;25.90;99.90;;;;;;5026446;28;19932;-77
2022/08/15 13:29:59;;;;;;;;;;;26.10;99.90;;;;;;5026316;28;19968;-76
2022/08/15 13:32:24;;;;;;;;;;;26.10;99.90;;;;;;5026380;28;19984;-77
2022/08/15 13:34:50;;;;;;;;;;;26.20;99.90;;;;;;5037353;28;20315;-77
2022/08/15 13:37:15;;;;;;;;;;;26.20;99.90;;;;;;5046671;28;20090;-77
2022/08/15 13:39:41;;;;;;;;;;;26.30;99.70;;;;;;5046141;28;20291;-76
2022/08/15 13:42:06;;;;;;;;;;;26.30;99.40;;;;;;5045138;28;19925;-76
2022/08/15 13:44:36;;;;;;;;;;;26.30;99.00;;;;;;5044668;28;20433;-77
2022/08/15 13:47:01;;;;;;;;;;;26.30;98.70;;;;;;5046487;28;20008;-77
2022/08/15 13:49:29;;;;;;;;;;;26.30;99.10;;;;;;5046940;28;20023;-76
2022/08/15 13:51:56;;;;;;;;;;;26.30;99.40;;;;;;5046527;28;19936;-77
2022/08/15 13:54:23;;;;;;;;;;;26.30;99.90;;;;;;5046278;28;20341;-77
2022/08/15 13:56:49;;;;;;;;;;;26.30;99.90;;;;;;5045022;28;19986;-76
2022/08/15 13:59:14;;;;;;;;;;;26.30;99.90;;;;;;5046429;28;20007;-77
2022/08/15 14:01:45;;;;;;;;;;;26.40;99.90;;;;;;5045143;28;20373;-77
2022/08/15 14:04:15;;;;;;;;;;;26.40;99.90;;;;;;5046326;28;20307;-77
2022/08/15 14:06:41;;;;;;;;;;;26.50;99.90;;;;;;5045785;28;20393;-77
2022/08/15 14:09:07;;;;;;;;;;;26.40;99.90;;;;;;5046293;28;20028;-77
2022/08/15 14:11:35;;;;;;;;;;;26.40;99.90;;;;;;5045994;28;19972;-77
2022/08/15 14:14:01;;;;;;;;;;;26.40;99.90;;;;;;5046266;28;19976;-77
2022/08/15 14:16:28;;;;;;;;;;;26.40;99.90;;;;;;5045511;28;19925;-77
2022/08/15 14:18:53;;;;;;;;;;;26.40;99.90;;;;;;5046686;28;19969;-77
2022/08/15 14:21:23;;;;;;;;;;;26.40;99.90;;;;;;5061744;28;20359;-77
2022/08/15 14:23:49;;;;;;;;;;;26.40;99.90;;;;;;5043276;28;20838;-79
2022/08/15 14:26:15;;;;;;;;;;;26.40;99.90;;;;;;5044524;28;19977;-77
2022/08/15 14:28:41;;;;;;;;;;;26.30;99.90;;;;;;5045830;28;19929;-78
2022/08/15 14:31:07;;;;;;;;;;;26.30;99.90;;;;;;5044814;28;20073;-78
2022/08/15 14:33:33;;;;;;;;;;;26.30;99.90;;;;;;5045849;28;19925;-78
2022/08/15 14:35:59;;;;;;;;;;;26.20;99.90;;;;;;5047472;28;19925;-78